Time;durP1;ratioP1;P1;durP2;ratioP2;P2;SDS_P1;SDS_P2;PMS_P1;PMS_P2;Temp;Humidity;BMP_temperature;BMP_pressure;BME280_temperature;BME280_humidity;BME280_pressure;Samples;Min_cycle;Max_cycle;Signal;HPM_P1;HPM_P2
2023/05/15 00:01:47;;;;;;;9.18;4.18;;;;;;;;;;4949000;28;93236;-77
2023/05/15 00:04:13;;;;;;;10.05;4.55;;;;;;;;;;4949354;28;91765;-78
2023/05/15 00:06:40;;;;;;;9.40;4.43;;;;;;;;;;4948558;28;92813;-77
2023/05/15 00:09:07;;;;;;;8.48;4.18;;;;;;;;;;4949274;28;93087;-76
2023/05/15 00:11:34;;;;;;;;;;;;;;;;;;4945387;28;94977;-76
2023/05/15 00:14:00;;;;;;;11.25;4.32;;;;;;;;;;4952764;28;117996;-77
2023/05/15 00:16:27;;;;;;;10.05;4.28;;;;;;;;;;4946895;28;93166;-76
2023/05/15 00:18:53;;;;;;;9.52;4.43;;;;;;;;;;4948996;28;93296;-77
2023/05/15 00:21:20;;;;;;;8.60;4.43;;;;;;;;;;4949047;28;93097;-77
2023/05/15 00:23:46;;;;;;;10.00;4.35;;;;;;;;;;4949158;28;92513;-77
2023/05/15 00:26:14;;;;;;;10.05;4.38;;;;;;;;;;4948877;28;93249;-77
2023/05/15 00:28:41;;;;;;;8.95;3.97;;;;;;;;;;4948968;28;93634;-78
2023/05/15 00:31:07;;;;;;;11.15;5.50;;;;;;;;;;4948718;28;92382;-77
2023/05/15 00:33:34;;;;;;;9.70;4.50;;;;;;;;;;4946995;28;94540;-77
2023/05/15 00:36:01;;;;;;;8.27;4.47;;;;;;;;;;4948679;28;98006;-77
2023/05/15 00:38:28;;;;;;;9.32;5.00;;;;;;;;;;4948157;28;96367;-77
2023/05/15 00:40:55;;;;;;;9.68;4.68;;;;;;;;;;4948555;28;93428;-77
2023/05/15 00:43:22;;;;;;;8.63;4.70;;;;;;;;;;4947094;28;92555;-77
2023/05/15 00:45:49;;;;;;;9.82;4.80;;;;;;;;;;4948193;28;92840;-77
2023/05/15 00:48:15;;;;;;;10.50;5.32;;;;;;;;;;4948662;28;94485;-77
2023/05/15 00:50:42;;;;;;;9.60;5.05;;;;;;;;;;4946505;28;93006;-76
2023/05/15 00:53:09;;;;;;;9.85;4.82;;;;;;;;;;4949410;28;92840;-77
2023/05/15 00:55:36;;;;;;;10.38;4.95;;;;;;;;;;4948900;28;93043;-77
2023/05/15 00:58:03;;;;;;;10.38;4.72;;;;;;;;;;4950639;28;93502;-78
2023/05/15 01:00:31;;;;;;;10.90;5.30;;;;;;;;;;4941251;28;95545;-77
2023/05/15 01:02:58;;;;;;;13.85;5.32;;;;;;;;;;4930931;28;92519;-77
2023/05/15 01:05:26;;;;;;;9.70;4.60;;;;;;;;;;4949245;28;93350;-77
2023/05/15 01:08:13;;;;;;;11.35;5.22;;;;;;;;;;4950174;28;93345;-77
2023/05/15 01:10:41;;;;;;;9.98;5.18;;;;;;;;;;4946659;28;92512;-77
2023/05/15 01:13:08;;;;;;;9.02;4.47;;;;;;;;;;4935102;28;92846;-78
2023/05/15 01:15:35;;;;;;;11.00;5.28;;;;;;;;;;4946657;28;94424;-77
2023/05/15 01:18:02;;;;;;;9.45;4.20;;;;;;;;;;4948934;28;91713;-77
2023/05/15 01:20:33;;;;;;;9.55;5.30;;;;;;;;;;4950040;28;92876;-76
2023/05/15 01:23:06;;;;;;;10.18;4.82;;;;;;;;;;4947241;28;92528;-76
2023/05/15 01:25:42;;;;;;;10.18;4.97;;;;;;;;;;4946852;28;95247;-76
2023/05/15 01:28:11;;;;;;;9.48;4.65;;;;;;;;;;4935916;28;93167;-76
2023/05/15 01:30:39;;;;;;;9.93;5.13;;;;;;;;;;4947008;28;92513;-77
2023/05/15 01:33:15;;;;;;;11.85;5.35;;;;;;;;;;4946312;28;95642;-77
2023/05/15 01:35:44;;;;;;;11.95;5.13;;;;;;;;;;4963818;28;93821;-77
2023/05/15 01:38:18;;;;;;;10.93;5.50;;;;;;;;;;4967955;28;92445;-78
2023/05/15 01:40:46;;;;;;;10.57;4.63;;;;;;;;;;4967425;28;95414;-78
2023/05/15 01:43:26;;;;;;;9.68;5.20;;;;;;;;;;4968461;28;92346;-78
2023/05/15 01:45:53;;;;;;;9.48;5.05;;;;;;;;;;4965907;28;93830;-77
2023/05/15 01:48:21;;;;;;;10.80;4.97;;;;;;;;;;4967383;28;93089;-78
2023/05/15 01:50:49;;;;;;;10.00;4.95;;;;;;;;;;4947396;28;95464;-78
2023/05/15 01:53:17;;;;;;;10.50;4.60;;;;;;;;;;4967892;28;95591;-77
2023/05/15 01:55:44;;;;;;;10.77;5.47;;;;;;;;;;4956260;28;93043;-77
2023/05/15 01:58:12;;;;;;;11.70;5.65;;;;;;;;;;4960731;28;92561;-77
2023/05/15 02:00:38;;;;;;;11.80;5.63;;;;;;;;;;4949683;28;95917;-80
2023/05/15 02:03:05;;;;;;;12.15;5.43;;;;;;;;;;4968703;28;94732;-77
2023/05/15 02:05:33;;;;;;;12.45;6.03;;;;;;;;;;4966501;28;95807;-76
2023/05/15 02:08:01;;;;;;;12.40;6.30;;;;;;;;;;4967790;28;94724;-76
2023/05/15 02:10:27;;;;;;;10.88;5.57;;;;;;;;;;4949882;28;92516;-76
2023/05/15 02:12:54;;;;;;;12.45;6.00;;;;;;;;;;4948060;28;95766;-77
2023/05/15 02:15:22;;;;;;;10.25;5.70;;;;;;;;;;4946144;28;96415;-76
2023/05/15 02:17:49;;;;;;;13.50;7.00;;;;;;;;;;4947760;28;93765;-76
2023/05/15 02:20:16;;;;;;;17.30;6.68;;;;;;;;;;4945990;28;94155;-77
2023/05/15 02:22:42;;;;;;;12.10;6.13;;;;;;;;;;4927834;28;96465;-77
2023/05/15 02:25:09;;;;;;;12.65;6.00;;;;;;;;;;4948682;28;92695;-77
2023/05/15 02:27:41;;;;;;;12.05;5.53;;;;;;;;;;4948093;28;93194;-77
2023/05/15 02:30:26;;;;;;;12.15;6.20;;;;;;;;;;4932530;28;92658;-77
2023/05/15 02:32:58;;;;;;;10.63;5.78;;;;;;;;;;4982083;28;97483;-77
2023/05/15 02:35:32;;;;;;;13.93;5.90;;;;;;;;;;4967631;28;94522;-77
2023/05/15 02:38:01;;;;;;;14.60;7.05;;;;;;;;;;4957444;28;92399;-77
2023/05/15 02:40:29;;;;;;;15.57;7.20;;;;;;;;;;4968010;28;94976;-77
2023/05/15 02:42:55;;;;;;;12.98;6.30;;;;;;;;;;4969211;28;94445;-76
2023/05/15 02:45:22;;;;;;;13.35;6.68;;;;;;;;;;4969892;28;92942;-77
2023/05/15 02:47:50;;;;;;;13.50;6.15;;;;;;;;;;4972868;28;92806;-77
2023/05/15 02:50:17;;;;;;;13.23;6.03;;;;;;;;;;4955101;28;92770;-77
2023/05/15 02:52:43;;;;;;;14.88;6.60;;;;;;;;;;4968066;28;93766;-77
2023/05/15 02:55:10;;;;;;;11.95;6.30;;;;;;;;;;4969764;28;93767;-77
2023/05/15 02:57:36;;;;;;;12.77;6.43;;;;;;;;;;4969712;28;92528;-77
2023/05/15 03:00:06;;;;;;;15.40;5.90;;;;;;;;;;4965072;28;93848;-77
2023/05/15 03:02:32;;;;;;;12.63;6.30;;;;;;;;;;4963076;28;95730;-77
2023/05/15 03:04:59;;;;;;;12.00;6.13;;;;;;;;;;4963616;28;94831;-77
2023/05/15 03:07:26;;;;;;;13.20;6.20;;;;;;;;;;4978970;28;98905;-76
2023/05/15 03:09:52;;;;;;;14.77;7.18;;;;;;;;;;4973072;28;92817;-76
2023/05/15 03:12:19;;;;;;;13.93;7.07;;;;;;;;;;4955831;28;95356;-77
2023/05/15 03:14:45;;;;;;;13.93;7.30;;;;;;;;;;4949245;28;94780;-77
2023/05/15 03:17:11;;;;;;;15.23;8.38;;;;;;;;;;4950391;28;92624;-77
2023/05/15 03:19:38;;;;;;;14.00;7.43;;;;;;;;;;4949799;28;92838;-77
2023/05/15 03:22:04;;;;;;;18.85;9.63;;;;;;;;;;4950828;28;92769;-77
2023/05/15 03:24:31;;;;;;;18.30;9.63;;;;;;;;;;4948306;28;92548;-77
2023/05/15 03:26:57;;;;;;;18.05;8.90;;;;;;;;;;4948533;28;95790;-77
2023/05/15 03:29:24;;;;;;;15.70;9.07;;;;;;;;;;4946313;28;97824;-77
2023/05/15 03:31:51;;;;;;;15.20;8.18;;;;;;;;;;4952699;28;93370;-77
2023/05/15 03:34:17;;;;;;;15.65;8.35;;;;;;;;;;4950212;28;93349;-77
2023/05/15 03:36:44;;;;;;;17.00;9.25;;;;;;;;;;4947538;28;92479;-77
2023/05/15 03:39:10;;;;;;;14.63;7.28;;;;;;;;;;4949261;28;92899;-77
2023/05/15 03:41:37;;;;;;;15.85;8.95;;;;;;;;;;4949911;28;93167;-77
2023/05/15 03:44:03;;;;;;;13.82;7.72;;;;;;;;;;4932326;28;92941;-77
2023/05/15 03:46:30;;;;;;;16.75;8.10;;;;;;;;;;4940631;28;93319;-77
2023/05/15 03:48:57;;;;;;;14.05;8.07;;;;;;;;;;4967215;28;92961;-77
2023/05/15 03:51:24;;;;;;;16.33;8.32;;;;;;;;;;4972033;28;92919;-77
2023/05/15 03:53:52;;;;;;;15.65;8.00;;;;;;;;;;4967363;28;96614;-77
2023/05/15 03:56:21;;;;;;;14.15;7.82;;;;;;;;;;4967219;28;92544;-77
2023/05/15 03:58:48;;;;;;;15.05;7.72;;;;;;;;;;4952956;28;93016;-77
2023/05/15 04:01:14;;;;;;;16.60;8.77;;;;;;;;;;4949163;28;93094;-77
2023/05/15 04:03:41;;;;;;;16.13;8.48;;;;;;;;;;4950035;28;92880;-77
2023/05/15 04:06:07;;;;;;;16.00;8.50;;;;;;;;;;4949020;28;92855;-77
2023/05/15 04:08:34;;;;;;;14.65;7.97;;;;;;;;;;4948786;28;93718;-77
2023/05/15 04:11:00;;;;;;;15.05;7.88;;;;;;;;;;4949147;28;91840;-78
2023/05/15 04:13:26;;;;;;;14.02;7.85;;;;;;;;;;4952872;28;93276;-78
2023/05/15 04:15:53;;;;;;;17.65;8.77;;;;;;;;;;4948730;28;92526;-78
2023/05/15 04:18:20;;;;;;;15.80;8.07;;;;;;;;;;4945901;28;94983;-78
2023/05/15 04:20:46;;;;;;;14.85;7.40;;;;;;;;;;4948014;28;93383;-79
2023/05/15 04:23:13;;;;;;;12.75;7.25;;;;;;;;;;4949388;28;92559;-78
2023/05/15 04:25:44;;;;;;;15.60;7.80;;;;;;;;;;4949114;28;93036;-78
2023/05/15 04:28:11;;;;;;;15.30;7.65;;;;;;;;;;4947639;28;93315;-78
2023/05/15 04:30:38;;;;;;;15.30;8.68;;;;;;;;;;4945723;28;92828;-78
2023/05/15 04:33:04;;;;;;;14.10;8.05;;;;;;;;;;4946687;28;92868;-77
2023/05/15 04:35:31;;;;;;;19.70;10.32;;;;;;;;;;4952579;28;93638;-77
2023/05/15 04:37:57;;;;;;;21.05;9.88;;;;;;;;;;4946537;28;95071;-77
2023/05/15 04:40:24;;;;;;;16.55;7.93;;;;;;;;;;4946757;28;93527;-77
2023/05/15 04:42:51;;;;;;;16.02;8.60;;;;;;;;;;4946765;28;94801;-77
2023/05/15 04:45:17;;;;;;;17.05;9.32;;;;;;;;;;4947967;28;95722;-77
2023/05/15 04:47:44;;;;;;;19.30;8.88;;;;;;;;;;4927028;28;94162;-77
2023/05/15 04:50:10;;;;;;;16.52;8.63;;;;;;;;;;4948465;28;92373;-77
2023/05/15 04:52:37;;;;;;;16.23;8.43;;;;;;;;;;4948316;28;92915;-77
2023/05/15 04:55:03;;;;;;;23.05;9.35;;;;;;;;;;4948047;28;92514;-77
2023/05/15 04:57:30;;;;;;;18.88;9.65;;;;;;;;;;4947688;28;93085;-77
2023/05/15 04:59:57;;;;;;;16.10;8.13;;;;;;;;;;4943512;28;92597;-77
2023/05/15 05:02:23;;;;;;;17.30;7.85;;;;;;;;;;4948007;28;92496;-77
2023/05/15 05:04:50;;;;;;;18.10;8.30;;;;;;;;;;4947194;28;93003;-77
2023/05/15 05:07:16;;;;;;;14.90;8.63;;;;;;;;;;4946127;28;95457;-77
2023/05/15 05:09:43;;;;;;;16.13;8.50;;;;;;;;;;4948256;28;92553;-76
2023/05/15 05:12:09;;;;;;;15.02;8.35;;;;;;;;;;4947480;28;93179;-77
2023/05/15 05:14:36;;;;;;;17.27;9.27;;;;;;;;;;4947776;28;93339;-77
2023/05/15 05:17:03;;;;;;;16.35;8.88;;;;;;;;;;4948328;28;93275;-77
2023/05/15 05:19:29;;;;;;;17.38;8.98;;;;;;;;;;4950148;28;92834;-76
2023/05/15 05:22:00;;;;;;;15.55;8.40;;;;;;;;;;4948224;28;92679;-77
2023/05/15 05:24:27;;;;;;;14.68;8.35;;;;;;;;;;4946964;28;92751;-77
2023/05/15 05:26:54;;;;;;;17.10;9.00;;;;;;;;;;4947399;28;93210;-77
2023/05/15 05:29:20;;;;;;;13.38;7.97;;;;;;;;;;4948151;28;94368;-77
2023/05/15 05:31:46;;;;;;;15.85;8.23;;;;;;;;;;4946738;28;94876;-79
2023/05/15 05:34:13;;;;;;;16.05;8.73;;;;;;;;;;4948747;28;95152;-79
2023/05/15 05:36:40;;;;;;;14.40;8.52;;;;;;;;;;4945702;28;92563;-78
2023/05/15 05:39:06;;;;;;;14.68;7.45;;;;;;;;;;4951570;28;93915;-78
2023/05/15 05:41:33;;;;;;;15.88;8.70;;;;;;;;;;4946279;28;92488;-79
2023/05/15 05:44:00;;;;;;;17.35;9.05;;;;;;;;;;4951635;28;93986;-79
2023/05/15 05:46:27;;;;;;;15.60;8.07;;;;;;;;;;4947902;28;93241;-79
2023/05/15 05:48:53;;;;;;;14.93;8.68;;;;;;;;;;4948785;28;91704;-79
2023/05/15 05:51:20;;;;;;;14.98;8.23;;;;;;;;;;4947692;28;92387;-76
2023/05/15 05:53:46;;;;;;;16.25;8.98;;;;;;;;;;4944632;28;94128;-79
2023/05/15 05:56:13;;;;;;;14.98;8.65;;;;;;;;;;4937999;28;96506;-77
2023/05/15 05:58:39;;;;;;;23.83;8.48;;;;;;;;;;4946542;28;95379;-77
2023/05/15 06:01:06;;;;;;;14.45;8.13;;;;;;;;;;4950408;28;93204;-77
2023/05/15 06:03:33;;;;;;;16.50;7.97;;;;;;;;;;4947368;28;93945;-77
2023/05/15 06:06:00;;;;;;;18.63;8.45;;;;;;;;;;4945219;28;93126;-76
2023/05/15 06:08:28;;;;;;;20.67;10.25;;;;;;;;;;4946281;28;92442;-81
2023/05/15 06:10:54;;;;;;;17.70;8.68;;;;;;;;;;4949646;28;92805;-82
2023/05/15 06:13:21;;;;;;;18.05;11.13;;;;;;;;;;4929142;28;93595;-81
2023/05/15 06:15:48;;;;;;;13.70;7.45;;;;;;;;;;4949018;28;93270;-81
2023/05/15 06:18:14;;;;;;;15.65;8.00;;;;;;;;;;4950541;28;93759;-81
2023/05/15 06:20:41;;;;;;;13.70;7.30;;;;;;;;;;4946140;28;95541;-83
2023/05/15 06:23:08;;;;;;;15.25;7.85;;;;;;;;;;4951531;28;92980;-81
2023/05/15 06:25:35;;;;;;;12.98;6.55;;;;;;;;;;4953777;28;93225;-81
2023/05/15 06:28:02;;;;;;;15.85;6.63;;;;;;;;;;4955741;28;92553;-84
2023/05/15 06:30:28;;;;;;;11.43;6.20;;;;;;;;;;4951143;28;93017;-82
2023/05/15 06:32:55;;;;;;;13.52;5.85;;;;;;;;;;4944475;28;92947;-81
2023/05/15 06:35:25;;;;;;;12.15;6.05;;;;;;;;;;4949961;28;92434;-81
2023/05/15 06:37:52;;;;;;;12.70;6.57;;;;;;;;;;4952834;28;92677;-80
2023/05/15 06:40:19;;;;;;;12.45;5.75;;;;;;;;;;4968408;28;95994;-80
2023/05/15 06:42:46;;;;;;;12.07;6.22;;;;;;;;;;4964623;28;93026;-80
2023/05/15 06:45:12;;;;;;;10.45;6.28;;;;;;;;;;4965439;28;95257;-82
2023/05/15 06:47:39;;;;;;;11.00;6.00;;;;;;;;;;4970074;28;92435;-80
2023/05/15 06:50:06;;;;;;;10.98;5.85;;;;;;;;;;4966490;28;93587;-79
2023/05/15 06:52:32;;;;;;;11.05;6.55;;;;;;;;;;4968100;28;95779;-81
2023/05/15 06:54:59;;;;;;;10.73;5.80;;;;;;;;;;4970914;28;92857;-80
2023/05/15 06:57:25;;;;;;;10.55;6.05;;;;;;;;;;4969523;28;95778;-81
2023/05/15 06:59:52;;;;;;;11.80;6.90;;;;;;;;;;4972478;28;93520;-77
2023/05/15 07:02:18;;;;;;;11.88;7.15;;;;;;;;;;4971240;28;92656;-80
2023/05/15 07:04:45;;;;;;;10.77;5.63;;;;;;;;;;4959152;28;92539;-81
2023/05/15 07:07:11;;;;;;;12.35;6.90;;;;;;;;;;4973441;28;93158;-82
2023/05/15 07:09:38;;;;;;;12.27;6.03;;;;;;;;;;4959793;28;95367;-80
2023/05/15 07:12:05;;;;;;;11.30;6.45;;;;;;;;;;4963355;28;94039;-78
2023/05/15 07:14:32;;;;;;;10.00;6.65;;;;;;;;;;4970290;28;92684;-78
2023/05/15 07:16:59;;;;;;;11.35;6.30;;;;;;;;;;4968273;28;93362;-79
2023/05/15 07:19:26;;;;;;;10.38;6.22;;;;;;;;;;4960191;28;93051;-79
2023/05/15 07:21:52;;;;;;;9.77;5.82;;;;;;;;;;4961480;28;92404;-78
2023/05/15 07:24:19;;;;;;;10.32;6.00;;;;;;;;;;4970017;28;92722;-80
2023/05/15 07:26:45;;;;;;;11.30;6.82;;;;;;;;;;4970045;28;92382;-79
2023/05/15 07:29:23;;;;;;;10.80;6.00;;;;;;;;;;4973614;28;92483;-79
2023/05/15 07:31:50;;;;;;;11.38;6.07;;;;;;;;;;4966303;28;94542;-80
2023/05/15 07:34:16;;;;;;;12.52;6.13;;;;;;;;;;4959737;28;95224;-80
2023/05/15 07:36:43;;;;;;;12.85;6.65;;;;;;;;;;4969576;28;95574;-80
2023/05/15 07:39:10;;;;;;;15.35;7.00;;;;;;;;;;4964104;28;93694;-81
2023/05/15 07:41:36;;;;;;;13.43;7.03;;;;;;;;;;4960187;28;92457;-79
2023/05/15 07:44:03;;;;;;;11.85;7.22;;;;;;;;;;4959698;28;92950;-80
2023/05/15 07:46:29;;;;;;;12.93;7.50;;;;;;;;;;4967524;28;93466;-81
2023/05/15 07:48:56;;;;;;;15.48;7.25;;;;;;;;;;4961882;28;92622;-80
2023/05/15 07:51:22;;;;;;;14.65;7.68;;;;;;;;;;4968609;28;92773;-80
2023/05/15 07:53:49;;;;;;;15.32;7.30;;;;;;;;;;4970049;28;92458;-80
2023/05/15 07:56:15;;;;;;;13.18;7.40;;;;;;;;;;4960959;28;92884;-80
2023/05/15 07:58:42;;;;;;;12.88;7.43;;;;;;;;;;4966168;28;95181;-80
2023/05/15 08:01:09;;;;;;;13.52;7.60;;;;;;;;;;4968334;28;92518;-82
2023/05/15 08:03:35;;;;;;;13.13;7.32;;;;;;;;;;4963883;28;93395;-84
2023/05/15 08:06:02;;;;;;;12.57;8.35;;;;;;;;;;4973668;28;92575;-84
2023/05/15 08:08:29;;;;;;;12.18;7.70;;;;;;;;;;4975023;28;92389;-83
2023/05/15 08:10:56;;;;;;;12.50;7.82;;;;;;;;;;4981293;28;92796;-84
2023/05/15 08:13:22;;;;;;;12.30;7.80;;;;;;;;;;4963621;28;92776;-84
2023/05/15 08:15:49;;;;;;;14.45;8.05;;;;;;;;;;4963423;28;92199;-85
2023/05/15 08:18:16;;;;;;;12.95;7.55;;;;;;;;;;4967667;28;94141;-84
2023/05/15 08:20:42;;;;;;;13.57;8.70;;;;;;;;;;4965831;28;92415;-85
2023/05/15 08:23:09;;;;;;;14.32;8.25;;;;;;;;;;4965228;28;95089;-83
2023/05/15 08:25:35;;;;;;;13.80;7.68;;;;;;;;;;4966886;28;93236;-84
2023/05/15 08:28:03;;;;;;;11.75;7.30;;;;;;;;;;4968318;28;92332;-83
2023/05/15 08:30:29;;;;;;;13.70;7.75;;;;;;;;;;4968386;28;92404;-83
2023/05/15 08:32:56;;;;;;;10.80;7.10;;;;;;;;;;4974037;28;92323;-81
2023/05/15 08:35:22;;;;;;;10.50;6.85;;;;;;;;;;4970256;28;93342;-82
2023/05/15 08:37:49;;;;;;;12.30;7.38;;;;;;;;;;4967655;28;92732;-82
2023/05/15 08:40:16;;;;;;;12.48;7.43;;;;;;;;;;4967131;28;91648;-83
2023/05/15 08:42:52;;;;;;;11.70;6.93;;;;;;;;;;4939293;28;93605;-82
2023/05/15 08:45:19;;;;;;;11.80;7.00;;;;;;;;;;4945882;28;92882;-83
2023/05/15 08:47:45;;;;;;;10.48;6.60;;;;;;;;;;4950408;28;95226;-83
2023/05/15 08:50:14;;;;;;;10.30;6.88;;;;;;;;;;4951581;28;95194;-83
2023/05/15 08:52:41;;;;;;;11.68;6.82;;;;;;;;;;4948330;28;93052;-82
2023/05/15 08:55:09;;;;;;;11.45;6.85;;;;;;;;;;4949699;28;92700;-82
2023/05/15 08:57:36;;;;;;;11.98;7.20;;;;;;;;;;4940283;28;93080;-83
2023/05/15 09:00:07;;;;;;;11.05;6.78;;;;;;;;;;4949154;28;92576;-83
2023/05/15 09:02:35;;;;;;;10.73;6.78;;;;;;;;;;4946214;28;92805;-82
2023/05/15 09:05:02;;;;;;;11.05;6.32;;;;;;;;;;4949017;28;92560;-82
2023/05/15 09:07:32;;;;;;;11.02;6.70;;;;;;;;;;4949611;28;92767;-83
2023/05/15 09:10:00;;;;;;;11.00;6.13;;;;;;;;;;4948935;28;93188;-83
2023/05/15 09:12:27;;;;;;;10.55;6.38;;;;;;;;;;4945432;28;95524;-82
2023/05/15 09:15:08;;;;;;;10.90;6.45;;;;;;;;;;4948305;28;92520;-82
2023/05/15 09:17:35;;;;;;;10.35;6.03;;;;;;;;;;4952646;28;93149;-82
2023/05/15 09:20:07;;;;;;;10.13;6.07;;;;;;;;;;4948491;28;92961;-84
2023/05/15 09:22:35;;;;;;;10.10;5.57;;;;;;;;;;4948898;28;92973;-82
2023/05/15 09:25:02;;;;;;;9.63;5.72;;;;;;;;;;4930318;28;95859;-84
2023/05/15 09:27:29;;;;;;;9.50;5.95;;;;;;;;;;4949454;28;92520;-84
2023/05/15 09:30:06;;;;;;;11.00;5.80;;;;;;;;;;4950325;28;91838;-83
2023/05/15 09:32:33;;;;;;;9.65;5.93;;;;;;;;;;4948790;28;93967;-83
2023/05/15 09:34:59;;;;;;;11.32;5.78;;;;;;;;;;4938336;28;93485;-83
2023/05/15 09:37:27;;;;;;;10.38;5.78;;;;;;;;;;4946458;28;94910;-83
2023/05/15 09:39:54;;;;;;;10.88;6.50;;;;;;;;;;4952795;28;93059;-83
2023/05/15 09:42:23;;;;;;;11.30;5.97;;;;;;;;;;4950069;28;92933;-83
2023/05/15 09:44:50;;;;;;;9.35;5.47;;;;;;;;;;4950461;28;93047;-82
2023/05/15 09:47:16;;;;;;;9.90;5.70;;;;;;;;;;4953196;28;92514;-83
2023/05/15 09:49:44;;;;;;;10.10;6.00;;;;;;;;;;4953387;28;93033;-83
2023/05/15 09:52:10;;;;;;;10.70;6.07;;;;;;;;;;4952730;28;93206;-82
2023/05/15 09:54:37;;;;;;;9.02;5.35;;;;;;;;;;4956265;28;91830;-83
2023/05/15 09:57:08;;;;;;;8.77;5.25;;;;;;;;;;4953282;28;92564;-83
2023/05/15 09:59:35;;;;;;;9.60;5.70;;;;;;;;;;4955588;28;93610;-83
2023/05/15 10:02:01;;;;;;;10.57;5.95;;;;;;;;;;4951234;28;94967;-83
2023/05/15 10:04:33;;;;;;;10.52;6.18;;;;;;;;;;4951347;28;93570;-83
2023/05/15 10:06:59;;;;;;;9.00;5.78;;;;;;;;;;4951196;28;92501;-83
2023/05/15 10:09:28;;;;;;;10.90;6.30;;;;;;;;;;4953660;28;92533;-83
2023/05/15 10:11:57;;;;;;;10.32;6.10;;;;;;;;;;4951718;28;92862;-82
2023/05/15 10:14:25;;;;;;;9.15;5.80;;;;;;;;;;4950986;28;92599;-83
2023/05/15 10:16:52;;;;;;;11.15;5.93;;;;;;;;;;4952909;28;97594;-83
2023/05/15 10:19:20;;;;;;;10.75;6.53;;;;;;;;;;4953184;28;92347;-83
2023/05/15 10:21:47;;;;;;;9.77;5.85;;;;;;;;;;4954883;28;92602;-83
2023/05/15 10:24:15;;;;;;;9.70;5.90;;;;;;;;;;4952640;28;94224;-83
2023/05/15 10:26:42;;;;;;;11.32;6.68;;;;;;;;;;4949196;28;95442;-82
2023/05/15 10:29:12;;;;;;;8.85;5.40;;;;;;;;;;4953843;28;95991;-83
2023/05/15 10:31:39;;;;;;;8.45;5.20;;;;;;;;;;4956769;28;93311;-82
2023/05/15 10:34:06;;;;;;;9.70;5.70;;;;;;;;;;4950445;28;92491;-84
2023/05/15 10:36:33;;;;;;;;;;;;;;;;;;4949350;28;95523;-83
2023/05/15 10:39:00;;;;;;;9.30;5.75;;;;;;;;;;4952848;28;93879;-82
2023/05/15 10:41:31;;;;;;;10.23;5.82;;;;;;;;;;4952221;28;92725;-83
2023/05/15 10:43:58;;;;;;;9.18;5.95;;;;;;;;;;4955511;28;93336;-83
2023/05/15 10:46:26;;;;;;;8.90;5.47;;;;;;;;;;4952380;28;92501;-83
2023/05/15 10:48:53;;;;;;;9.23;5.57;;;;;;;;;;4950458;28;97458;-83
2023/05/15 10:51:31;;;;;;;10.02;5.90;;;;;;;;;;4950306;28;95871;-83
2023/05/15 10:53:59;;;;;;;9.98;5.75;;;;;;;;;;4952752;28;92443;-82
2023/05/15 10:56:28;;;;;;;9.57;5.88;;;;;;;;;;4949031;28;92917;-82
2023/05/15 10:58:54;;;;;;;9.23;5.85;;;;;;;;;;4937646;28;93115;-83
2023/05/15 11:01:33;;;;;;;9.40;5.78;;;;;;;;;;4949741;28;92672;-83
2023/05/15 11:04:06;;;;;;;9.57;6.13;;;;;;;;;;4923070;28;93223;-83
2023/05/15 11:06:34;;;;;;;8.88;5.75;;;;;;;;;;4952475;28;96738;-82
2023/05/15 11:09:18;;;;;;;9.63;6.03;;;;;;;;;;4952302;28;94047;-83
2023/05/15 11:11:51;;;;;;;9.90;5.65;;;;;;;;;;4949533;28;92504;-82
2023/05/15 11:14:18;;;;;;;9.80;5.95;;;;;;;;;;4952265;28;92443;-83
2023/05/15 11:16:53;;;;;;;10.15;5.90;;;;;;;;;;4949227;28;94941;-82
2023/05/15 11:19:23;;;;;;;8.32;5.35;;;;;;;;;;4953281;28;100942;-83
2023/05/15 11:21:56;;;;;;;8.68;5.55;;;;;;;;;;4950743;28;92513;-82
2023/05/15 11:24:23;;;;;;;;;;;;;;;;;;4951957;28;93388;-82
2023/05/15 11:26:51;;;;;;;10.02;6.05;;;;;;;;;;4951956;28;103923;-82
2023/05/15 11:29:18;;;;;;;9.80;6.18;;;;;;;;;;4955546;28;92488;-83
2023/05/15 11:31:44;;;;;;;9.98;6.30;;;;;;;;;;4951525;28;93734;-83
2023/05/15 11:34:11;;;;;;;9.63;5.90;;;;;;;;;;4956067;28;91623;-82
2023/05/15 11:36:42;;;;;;;9.35;6.05;;;;;;;;;;4955331;28;92375;-82
2023/05/15 11:39:09;;;;;;;8.77;5.63;;;;;;;;;;4954306;28;93048;-82
2023/05/15 11:41:36;;;;;;;8.63;5.22;;;;;;;;;;4951723;28;94857;-82
2023/05/15 11:44:02;;;;;;;8.63;5.43;;;;;;;;;;4949802;28;98050;-82
2023/05/15 11:46:30;;;;;;;9.80;5.90;;;;;;;;;;4949763;28;93665;-82
2023/05/15 11:48:57;;;;;;;8.52;5.55;;;;;;;;;;4949543;28;92570;-82
2023/05/15 11:51:26;;;;;;;8.95;5.50;;;;;;;;;;4953531;28;92702;-83
2023/05/15 11:53:52;;;;;;;;;;;;;;;;;;4951381;28;92525;-82
2023/05/15 11:56:20;;;;;;;8.55;5.25;;;;;;;;;;4952221;28;93653;-82
2023/05/15 11:58:50;;;;;;;8.90;5.18;;;;;;;;;;4950010;28;93270;-82
2023/05/15 12:01:17;;;;;;;9.50;5.43;;;;;;;;;;4950882;28;92526;-83
2023/05/15 12:03:46;;;;;;;10.00;6.25;;;;;;;;;;4950558;28;93123;-82
2023/05/15 12:06:13;;;;;;;9.05;5.38;;;;;;;;;;4937350;28;95457;-82
2023/05/15 12:08:40;;;;;;;9.30;5.90;;;;;;;;;;4949337;28;92587;-83
2023/05/15 12:11:07;;;;;;;10.20;5.57;;;;;;;;;;4953251;28;92630;-83
2023/05/15 12:13:34;;;;;;;8.63;5.00;;;;;;;;;;4947334;28;93374;-83
2023/05/15 12:16:02;;;;;;;8.98;5.25;;;;;;;;;;4948779;28;93629;-83
2023/05/15 12:18:30;;;;;;;8.48;4.95;;;;;;;;;;4950563;28;93367;-82
2023/05/15 12:20:57;;;;;;;8.48;5.03;;;;;;;;;;4954819;28;92392;-83
2023/05/15 12:23:24;;;;;;;8.52;5.13;;;;;;;;;;4954957;28;92640;-83
2023/05/15 12:25:53;;;;;;;9.75;5.55;;;;;;;;;;4954259;28;93063;-83
2023/05/15 12:28:20;;;;;;;9.63;5.25;;;;;;;;;;4955026;28;92581;-83
2023/05/15 12:30:48;;;;;;;8.95;5.28;;;;;;;;;;4951675;28;95244;-83
2023/05/15 12:33:14;;;;;;;;;;;;;;;;;;4955535;28;93403;-84
2023/05/15 12:35:42;;;;;;;7.90;5.30;;;;;;;;;;4945047;28;112968;-82
2023/05/15 12:38:12;;;;;;;8.63;5.03;;;;;;;;;;4953370;28;93579;-83
2023/05/15 12:40:39;;;;;;;7.82;4.80;;;;;;;;;;4939964;28;92506;-83
2023/05/15 12:43:06;;;;;;;9.15;5.20;;;;;;;;;;4938183;28;93333;-83
2023/05/15 12:45:35;;;;;;;8.23;4.95;;;;;;;;;;4950763;28;93190;-83
2023/05/15 12:48:02;;;;;;;8.35;4.90;;;;;;;;;;4951513;28;91765;-83
2023/05/15 12:50:31;;;;;;;8.50;4.78;;;;;;;;;;4953750;28;92502;-84
2023/05/15 12:52:59;;;;;;;8.38;5.00;;;;;;;;;;4954414;28;95600;-83
2023/05/15 12:55:27;;;;;;;7.88;4.63;;;;;;;;;;4951299;28;94894;-83
2023/05/15 12:57:57;;;;;;;8.25;4.95;;;;;;;;;;4949466;28;93041;-83
2023/05/15 13:00:24;;;;;;;8.35;5.00;;;;;;;;;;4950640;28;92454;-83
2023/05/15 13:02:51;;;;;;;;;;;;;;;;;;4952099;28;97227;-83
2023/05/15 13:05:18;;;;;;;7.60;4.38;;;;;;;;;;4950843;28;118983;-83
2023/05/15 13:07:44;;;;;;;7.65;4.47;;;;;;;;;;4949597;28;92991;-83
2023/05/15 13:10:11;;;;;;;7.55;4.70;;;;;;;;;;4946105;28;92458;-82
2023/05/15 13:12:47;;;;;;;8.65;4.78;;;;;;;;;;4949594;28;92426;-82
2023/05/15 13:15:30;;;;;;;7.93;4.63;;;;;;;;;;4950198;28;92591;-83
2023/05/15 13:18:07;;;;;;;7.50;4.40;;;;;;;;;;4953146;28;92779;-82
2023/05/15 13:20:34;;;;;;;8.02;4.60;;;;;;;;;;4946611;28;95476;-82
2023/05/15 13:23:00;;;;;;;7.60;4.25;;;;;;;;;;4949712;28;95225;-83
2023/05/15 13:25:28;;;;;;;7.75;4.13;;;;;;;;;;4949418;28;93089;-82
2023/05/15 13:27:58;;;;;;;7.78;4.40;;;;;;;;;;4949503;28;92610;-82
2023/05/15 13:30:24;;;;;;;7.63;4.20;;;;;;;;;;4949645;28;92875;-82
2023/05/15 13:32:51;;;;;;;7.28;4.05;;;;;;;;;;4949271;28;97889;-83
2023/05/15 13:35:21;;;;;;;7.50;4.70;;;;;;;;;;4949298;28;92554;-83
2023/05/15 13:37:48;;;;;;;7.43;4.30;;;;;;;;;;4949343;28;93023;-84
2023/05/15 13:40:14;;;;;;;7.15;4.32;;;;;;;;;;4951949;28;92599;-81
2023/05/15 13:42:41;;;;;;;7.10;4.15;;;;;;;;;;4948150;28;93066;-84
2023/05/15 13:45:09;;;;;;;6.75;3.83;;;;;;;;;;4947857;28;95792;-84
2023/05/15 13:47:38;;;;;;;7.15;4.03;;;;;;;;;;4949795;28;92658;-84
2023/05/15 13:50:06;;;;;;;7.05;3.85;;;;;;;;;;4948858;28;95104;-82
2023/05/15 13:52:33;;;;;;;7.20;4.15;;;;;;;;;;4940533;28;93103;-82
2023/05/15 13:54:59;;;;;;;7.65;4.20;;;;;;;;;;4946564;28;92741;-82
2023/05/15 13:57:26;;;;;;;7.32;4.38;;;;;;;;;;4950479;28;92854;-81
2023/05/15 13:59:52;;;;;;;7.43;4.07;;;;;;;;;;4949718;28;93156;-84
2023/05/15 14:02:20;;;;;;;6.95;4.03;;;;;;;;;;4952647;28;91696;-83
2023/05/15 14:04:46;;;;;;;6.57;4.00;;;;;;;;;;4948012;28;95224;-83
2023/05/15 14:07:13;;;;;;;7.18;4.05;;;;;;;;;;4948706;28;92420;-84
2023/05/15 14:09:40;;;;;;;6.68;3.92;;;;;;;;;;4947850;28;94820;-83
2023/05/15 14:12:08;;;;;;;7.13;4.22;;;;;;;;;;4948788;28;93082;-84
2023/05/15 14:14:35;;;;;;;8.25;4.32;;;;;;;;;;4948704;28;93479;-82
2023/05/15 14:17:02;;;;;;;7.15;4.10;;;;;;;;;;4949281;28;93182;-82
2023/05/15 14:19:29;;;;;;;6.90;3.85;;;;;;;;;;4949063;28;93080;-82
2023/05/15 14:21:55;;;;;;;7.47;3.97;;;;;;;;;;4944224;28;92894;-82
2023/05/15 14:24:22;;;;;;;6.72;3.88;;;;;;;;;;4947638;28;94314;-82
2023/05/15 14:26:48;;;;;;;7.68;4.28;;;;;;;;;;4947448;28;91877;-82
2023/05/15 14:29:15;;;;;;;6.93;3.85;;;;;;;;;;4948985;28;92297;-82
2023/05/15 14:31:42;;;;;;;7.40;4.15;;;;;;;;;;4951540;28;92999;-82
2023/05/15 14:34:08;;;;;;;7.07;4.00;;;;;;;;;;4950159;28;95102;-82
2023/05/15 14:36:35;;;;;;;7.57;4.10;;;;;;;;;;4951241;28;95289;-82
2023/05/15 14:39:03;;;;;;;6.57;3.78;;;;;;;;;;4952752;28;93124;-82